Etusivu
METAR-TAF:

METAR-TAF

Lentoasemat :

Beauvechain, Belgia

Leveyspiiri: 50-45N, Pituuspiiri: 004-46E, korkeus merenpinnasta: 105 m

Tämänhetkinen sää

Tämä raportti tehtiin 35 minuuttia sitten, kello 00.25 UTC
Tuuli 7 kn etelästä/lounaasta
Lämpötila 5°C
Kosteus 81%
Ilmanpaine 1022 hPa
Näkyvyys 10 km tai enemmän

METAR: EBBE 200025Z AUTO 21007KT 9999 NCD 05/02 Q1022 BLU

Aika: 02:00 (01:00 UTC)

Sääennuste

Tämä raportti tehtiin 9 tuntia ja 19 minuuttia sitten, kello 15.41 UTC
Ennuste voimassa 19. päivästä klo 19 UTC - 20. päivään klo 07 UTC
Tuuli 8 kn lounaasta
Näkyvyys 10 km tai enemmän
Hajanaisia pilviä 3000 ft:n korkeudessa
Hajonneita pilviä 14000 ft:n korkeudessa
Tulossa
20. päivästä klo 03 UTC - 20. päivään klo 05 UTC
Muutamia pilviä 3000 ft:n korkeudessa
Hajonneita pilviä 10000 ft:n korkeudessa

TAF: EBBE 191541Z 1919/2007 22008KT 9999 SCT030 BKN140 BECMG 2003/2005 FEW030 BKN100

Säähavainnot ja -ennusteet yli 4000 lentoasemalta (METAR- ja TAF-raportit).

Käytössä olevat sääasemat on merkitty karttaan keltaisilla ja punaisilla pisteillä.

Aseta hiiri pisteen päälle nähdäksesi sääaseman nimen.

Klikkaa sitten nähdäksesi säähavainnot ja -ennusteet.

Kartan vaihtaminen: klikkaa mustalla rastilla varustettuja vihreitä pisteitä, niin voit zoomata sisään; viivalla varustettua vihreää pistettä, niin voit zoomata ulos tai vihreitä nuolia, niin pääset viereisille kartoille.


METAR-TAF: